Terminal Aerodrome Forecast
Issued by NWS

Home | Current Version | Previous Version | Text Only | Print | Product List | Glossary On
Versions: 1 2 3 4 5 6 7 8 9 10 11 12 13 14 15 16 17 18
000
FTUS46 KSGX 010500
TAFSNA
TAF
KSNA 010520Z 0106/0206 20008KT P6SM VCSH BKN025
     FM010800 19011G19KT 6SM -SHRA BR FEW010 BKN015
     FM011200 22010KT P6SM VCSH SCT015 OVC045
     FM011700 24008KT P6SM SCT020 BKN035
     FM020100 VRB04KT P6SM BKN030=

USA.gov is the U.S. government's official web portal to all federal, state and local government web resources and services.